createdAt,value
2022-12-16T00:00:37.526Z,100401.63
2022-12-16T00:03:03.973Z,100399.31
2022-12-16T00:05:30.388Z,100406.91
2022-12-16T00:07:56.767Z,100402.25
2022-12-16T00:10:23.649Z,100403.50
2022-12-16T00:12:49.988Z,100413.22
2022-12-16T00:15:18.353Z,100405.28
2022-12-16T00:17:44.772Z,100405.72
2022-12-16T00:20:11.497Z,100396.34
2022-12-16T00:22:37.853Z,100397.31
2022-12-16T00:25:04.336Z,100394.66
2022-12-16T00:27:30.717Z,100402.19
2022-12-16T00:29:57.153Z,100394.47
2022-12-16T00:32:23.514Z,100397.41
2022-12-16T00:34:50.099Z,100401.22
2022-12-16T00:37:16.969Z,100404.13
2022-12-16T00:39:43.354Z,100401.97
2022-12-16T00:42:09.748Z,100400.50
2022-12-16T00:44:36.095Z,100399.81
2022-12-16T00:47:02.431Z,100402.47
2022-12-16T00:49:28.847Z,100406.69
2022-12-16T00:51:55.199Z,100399.47
2022-12-16T00:54:21.634Z,100392.94
2022-12-16T00:56:47.946Z,100398.22
2022-12-16T00:59:14.311Z,100385.47
2022-12-16T01:01:40.847Z,100394.25
2022-12-16T01:04:07.345Z,100397.75
2022-12-16T01:06:34.684Z,100399.53
2022-12-16T01:09:01.087Z,100392.38
2022-12-16T01:11:27.422Z,100394.66
2022-12-16T01:13:55.177Z,100392.88
2022-12-16T01:16:21.779Z,100397.09
2022-12-16T01:18:48.175Z,100397.19
2022-12-16T01:21:15.055Z,100401.19
2022-12-16T01:23:41.421Z,100401.00
2022-12-16T01:26:08.050Z,100405.97
2022-12-16T01:28:34.509Z,100403.13
2022-12-16T01:31:04.424Z,100402.28
2022-12-16T01:33:32.138Z,100405.25
2022-12-16T01:36:02.921Z,100408.00
2022-12-16T01:38:29.709Z,100403.66
2022-12-16T01:40:56.136Z,100416.88
2022-12-16T01:43:28.624Z,100417.81
2022-12-16T01:45:58.843Z,100377.53
2022-12-16T01:48:32.802Z,100422.91
2022-12-16T01:51:02.103Z,100422.53
2022-12-16T01:53:29.032Z,100426.75
2022-12-16T01:55:56.491Z,100427.19
2022-12-16T01:58:24.732Z,100426.13
2022-12-16T02:00:51.268Z,100435.34
2022-12-16T02:03:18.033Z,100428.91
2022-12-16T02:05:45.862Z,100435.47
2022-12-16T02:08:16.660Z,100434.19
2022-12-16T02:13:26.802Z,100434.38
2022-12-16T02:15:53.147Z,100433.56
2022-12-16T02:18:30.819Z,100424.38
2022-12-16T02:21:15.675Z,100429.38
2022-12-16T02:23:48.297Z,100435.66
2022-12-16T02:26:15.799Z,100434.50
2022-12-16T02:29:05.655Z,100428.81
2022-12-16T02:31:37.105Z,100437.59
2022-12-16T02:34:28.851Z,100432.63
2022-12-16T02:37:14.119Z,100438.09
2022-12-16T02:39:52.009Z,100443.28
2022-12-16T02:42:27.290Z,100449.63
2022-12-16T02:47:59.500Z,100443.28
2022-12-16T02:50:38.111Z,100444.16
2022-12-16T02:53:06.010Z,100442.47
2022-12-16T02:55:41.971Z,100447.94
2022-12-16T02:58:27.708Z,100442.47
2022-12-16T03:03:59.657Z,100453.09
2022-12-16T03:06:27.020Z,100443.72
2022-12-16T03:09:04.071Z,100449.63
2022-12-16T03:11:31.428Z,100443.09
2022-12-16T03:14:08.743Z,100451.13
2022-12-16T03:16:35.638Z,100449.63
2022-12-16T03:19:19.631Z,100455.47
2022-12-16T03:21:56.045Z,100445.84
2022-12-16T03:24:23.153Z,100452.81
2022-12-16T03:26:55.995Z,100446.25
2022-12-16T03:29:34.762Z,100448.91
2022-12-16T03:32:04.291Z,100458.72
2022-12-16T03:38:01.054Z,100453.63
2022-12-16T03:40:43.800Z,100454.69
2022-12-16T03:43:15.303Z,100460.56
2022-12-16T03:45:54.193Z,100460.97
2022-12-16T03:48:35.143Z,100468.59
2022-12-16T03:53:50.661Z,100468.59
2022-12-16T03:56:18.022Z,100466.38
2022-12-16T03:58:44.627Z,100463.47
2022-12-16T04:01:11.307Z,100456.88
2022-12-16T04:03:37.970Z,100457.41
2022-12-16T04:06:04.955Z,100459.69
2022-12-16T04:11:34.211Z,100465.25
2022-12-16T04:14:19.314Z,100464.75
2022-12-16T04:17:04.359Z,100468.19
2022-12-16T04:19:50.843Z,100464.78
2022-12-16T04:23:00.916Z,100464.19
2022-12-16T04:28:15.391Z,100468.63
2022-12-16T04:30:44.029Z,100481.72
2022-12-16T04:33:34.080Z,100475.44
2022-12-16T04:36:19.545Z,100469.47
2022-12-16T04:39:04.683Z,100477.00
2022-12-16T04:44:53.022Z,100488.53
2022-12-16T04:47:41.480Z,100492.53
2022-12-16T04:50:26.964Z,100493.19
2022-12-16T04:53:12.337Z,100499.34
2022-12-16T04:56:04.162Z,100495.78
2022-12-16T05:01:55.470Z,100505.78
2022-12-16T05:04:40.773Z,100509.38
2022-12-16T05:07:25.673Z,100517.94
2022-12-16T05:10:10.958Z,100529.81
2022-12-16T05:12:56.027Z,100526.34
2022-12-16T05:15:40.924Z,100528.38
2022-12-16T05:18:28.500Z,100529.38
2022-12-16T05:21:15.705Z,100525.69
2022-12-16T05:24:04.357Z,100530.28
2022-12-16T05:26:49.233Z,100535.28
2022-12-16T05:29:37.259Z,100530.28
2022-12-16T05:35:25.590Z,100532.00
2022-12-16T05:38:11.132Z,100538.13
2022-12-16T05:40:56.520Z,100549.53
2022-12-16T05:43:41.801Z,100550.09
2022-12-16T05:46:34.766Z,100551.88
2022-12-16T05:49:24.161Z,100560.47
2022-12-16T05:56:08.056Z,100557.75
2022-12-16T05:58:56.022Z,100577.81
2022-12-16T06:01:43.070Z,100573.94
2022-12-16T06:04:29.075Z,100584.41
2022-12-16T06:07:26.549Z,100582.34
2022-12-16T06:10:20.275Z,100588.56
2022-12-16T06:13:06.153Z,100585.63
2022-12-16T06:15:51.496Z,100592.31
2022-12-16T06:18:36.722Z,100596.09
2022-12-16T09:38:33.435Z,100863.88
2022-12-16T09:41:42.845Z,100863.44
2022-12-16T09:44:38.276Z,100861.69
2022-12-16T09:47:30.932Z,100868.19
2022-12-16T09:50:16.271Z,100875.16
2022-12-16T09:53:11.355Z,100875.44
2022-12-16T09:55:57.725Z,100872.00
2022-12-16T09:58:45.636Z,100880.28
2022-12-16T10:01:31.691Z,100876.75
2022-12-16T10:04:17.390Z,100885.91
2022-12-16T10:07:06.986Z,100887.47
2022-12-16T10:09:52.189Z,100891.44
2022-12-16T10:13:04.185Z,100897.69
2022-12-16T10:16:12.625Z,100896.91
2022-12-16T10:19:24.327Z,100902.22
2022-12-16T10:22:29.846Z,100900.25
2022-12-16T10:25:38.392Z,100904.84
2022-12-16T10:28:50.325Z,100907.88
2022-12-16T10:31:56.591Z,100913.63
2022-12-16T10:35:02.486Z,100910.63
2022-12-16T10:38:08.014Z,100914.69
2022-12-16T10:41:14.181Z,100910.91
2022-12-16T10:44:20.561Z,100915.75
2022-12-16T10:47:26.510Z,100913.38
2022-12-16T10:50:32.287Z,100904.22
2022-12-16T10:53:40.188Z,100903.50
2022-12-16T10:56:57.815Z,100900.06
2022-12-16T11:00:03.010Z,100894.13
2022-12-16T11:03:08.594Z,100899.97
2022-12-16T11:06:18.731Z,100907.91
2022-12-16T11:09:34.815Z,100905.44
2022-12-16T11:12:50.364Z,100908.50
2022-12-16T11:15:55.804Z,100908.56
2022-12-16T11:19:07.957Z,100904.16
2022-12-16T11:22:24.295Z,100906.56
2022-12-16T11:25:34.356Z,100913.41
2022-12-16T11:28:44.336Z,100911.28
2022-12-16T11:31:52.285Z,100914.44
2022-12-16T11:35:06.106Z,100919.78
2022-12-16T11:38:13.313Z,100917.59
2022-12-16T11:41:18.794Z,100925.03
2022-12-16T11:44:26.486Z,100911.81
2022-12-16T11:47:58.535Z,100911.03
2022-12-16T11:51:09.817Z,100913.31
2022-12-16T11:54:18.119Z,100917.44
2022-12-16T11:57:25.814Z,100920.09
2022-12-16T12:00:34.686Z,100920.91
2022-12-16T12:03:48.683Z,100920.94
2022-12-16T12:07:11.160Z,100918.69
2022-12-16T12:10:22.556Z,100923.50
2022-12-16T12:13:46.046Z,100924.81
2022-12-16T12:17:10.767Z,100925.91
2022-12-16T12:20:19.338Z,100929.31
2022-12-16T12:23:25.858Z,100925.50
2022-12-16T12:26:41.063Z,100929.13
2022-12-16T12:30:20.470Z,100931.03
2022-12-16T12:33:44.056Z,100928.59
2022-12-16T12:36:49.410Z,100931.13
2022-12-16T12:39:58.614Z,100925.38
2022-12-16T12:43:13.486Z,100930.63
2022-12-16T12:46:22.778Z,100925.44
2022-12-16T12:49:47.644Z,100930.84
2022-12-16T12:53:14.769Z,100938.78
2022-12-16T12:56:28.651Z,100934.13
2022-12-16T12:59:39.184Z,100949.50
2022-12-16T13:02:46.881Z,100947.47
2022-12-16T13:05:53.609Z,100948.22
2022-12-16T13:09:07.908Z,100939.31
2022-12-16T13:12:25.387Z,100945.19
2022-12-16T13:15:37.109Z,100951.41
2022-12-16T13:18:45.361Z,100950.19
2022-12-16T13:21:57.452Z,100950.81
2022-12-16T13:25:11.561Z,100952.59
2022-12-16T13:28:20.450Z,100961.31
2022-12-16T13:31:32.062Z,100956.66
2022-12-16T13:34:37.788Z,100956.66
2022-12-16T13:41:10.943Z,100960.91
2022-12-16T13:44:17.558Z,100976.41
2022-12-16T13:47:42.762Z,100973.75
2022-12-16T13:50:58.588Z,100977.69
2022-12-16T13:54:07.839Z,100987.44
2022-12-16T14:01:18.741Z,100991.91
2022-12-16T14:04:50.799Z,100996.81
2022-12-16T14:08:01.968Z,100996.81
2022-12-16T14:17:50.962Z,101016.44
2022-12-16T14:21:35.695Z,101014.63
2022-12-16T14:25:01.508Z,101018.88
2022-12-16T14:28:38.579Z,101023.44
2022-12-16T14:31:59.651Z,101025.44
2022-12-16T14:35:19.714Z,101040.81
2022-12-16T14:38:51.749Z,101041.13
2022-12-16T14:41:56.880Z,101043.13
2022-12-16T14:45:06.139Z,101042.78
2022-12-16T14:52:21.184Z,101053.72
2022-12-16T16:51:09.522Z,101221.34
2022-12-16T16:54:14.921Z,101238.47
2022-12-16T16:57:36.748Z,101238.47
2022-12-16T17:00:42.104Z,101255.97
2022-12-16T17:03:47.544Z,101244.72
2022-12-16T17:06:53.824Z,101248.34
2022-12-16T17:10:01.403Z,101256.84
2022-12-16T17:13:06.585Z,101253.78
2022-12-16T17:16:18.171Z,101244.53
2022-12-16T17:19:23.785Z,101248.34
2022-12-16T17:22:29.237Z,101246.69
2022-12-16T17:25:34.786Z,101249.22
2022-12-16T17:28:40.138Z,101260.69
2022-12-16T17:31:45.611Z,101258.81
2022-12-16T17:34:52.708Z,101264.75
2022-12-16T17:37:58.688Z,101266.03
2022-12-16T17:41:09.575Z,101272.13
2022-12-16T17:44:14.863Z,101271.69
2022-12-16T17:47:20.304Z,101286.59
2022-12-16T17:50:25.820Z,101300.41
2022-12-16T17:53:31.895Z,101300.97
2022-12-16T17:56:37.566Z,101301.59
2022-12-16T17:59:43.524Z,101301.84
2022-12-16T18:02:49.349Z,101307.41
2022-12-16T18:05:54.537Z,101309.28
2022-12-16T18:09:00.486Z,101317.25
2022-12-16T18:12:05.856Z,101317.91
2022-12-16T18:15:11.185Z,101328.22
2022-12-16T18:18:16.563Z,101329.75
2022-12-16T18:21:31.438Z,101325.81
2022-12-16T18:24:36.805Z,101323.06
2022-12-16T18:27:42.249Z,101330.06
2022-12-16T18:30:47.724Z,101334.44
2022-12-16T18:33:52.927Z,101340.69
2022-12-16T18:36:58.897Z,101345.63
2022-12-16T18:40:04.190Z,101347.41
2022-12-16T18:43:09.550Z,101347.13
2022-12-16T18:46:15.693Z,101353.19
2022-12-16T18:49:28.023Z,101356.56
2022-12-16T18:52:33.292Z,101351.06
2022-12-16T18:55:38.419Z,101349.81
2022-12-16T18:59:04.433Z,101347.16
2022-12-16T19:02:15.786Z,101348.88
2022-12-16T19:05:21.518Z,101346.00
2022-12-16T19:08:29.271Z,101346.13
2022-12-16T19:11:34.792Z,101351.19
2022-12-16T19:14:40.939Z,101361.63
2022-12-16T19:17:46.293Z,101361.63
2022-12-16T19:20:51.668Z,101362.69
2022-12-16T19:23:57.128Z,101373.81
2022-12-16T19:27:02.913Z,101369.81
2022-12-16T19:30:08.430Z,101378.84
2022-12-16T19:33:14.480Z,101382.44
2022-12-16T19:36:42.700Z,101382.97
2022-12-16T19:39:53.851Z,101383.31
2022-12-16T19:43:01.924Z,101379.28
2022-12-16T19:46:13.345Z,101390.94
2022-12-16T19:49:21.897Z,101390.59
2022-12-16T19:52:31.841Z,101388.81
2022-12-16T19:55:43.314Z,101397.84
2022-12-16T19:58:48.782Z,101411.31
2022-12-16T20:01:54.920Z,101418.53
2022-12-16T20:05:00.488Z,101418.31
2022-12-16T20:08:11.656Z,101419.28
2022-12-16T20:11:17.263Z,101420.06
2022-12-16T20:14:22.842Z,101422.59
2022-12-16T20:17:48.054Z,101428.56
2022-12-16T20:20:53.478Z,101426.31
2022-12-16T20:24:07.758Z,101428.75
2022-12-16T20:27:15.256Z,101444.59
2022-12-16T20:30:20.951Z,101445.28
2022-12-16T20:33:30.172Z,101440.34
2022-12-16T20:36:35.805Z,101431.22
2022-12-16T20:43:04.727Z,101444.16
2022-12-16T20:46:13.425Z,101445.41
2022-12-16T20:49:18.611Z,101444.47
2022-12-16T20:52:24.387Z,101440.56
2022-12-16T20:55:29.613Z,101442.03
2022-12-16T20:58:35.825Z,101447.84
2022-12-16T21:02:01.289Z,101461.84
2022-12-16T21:05:07.073Z,101465.66
2022-12-16T21:08:22.701Z,101465.66
2022-12-16T21:11:27.983Z,101473.34
2022-12-16T21:14:33.241Z,101475.03
2022-12-16T21:17:38.796Z,101472.47
2022-12-16T21:20:44.287Z,101474.41
2022-12-16T21:23:49.400Z,101480.56
2022-12-16T21:26:56.276Z,101489.50
2022-12-16T21:30:01.521Z,101497.38
2022-12-16T21:33:08.400Z,101506.59
2022-12-16T21:36:13.881Z,101512.84
2022-12-16T21:39:27.373Z,101515.50
2022-12-16T21:42:35.508Z,101517.41
2022-12-16T21:45:42.896Z,101528.59
2022-12-16T21:48:48.017Z,101537.72
2022-12-16T21:51:57.280Z,101542.16
2022-12-16T21:55:02.676Z,101548.34
2022-12-16T21:58:07.986Z,101550.47
2022-12-16T22:01:14.055Z,101550.38
2022-12-16T22:04:19.280Z,101555.88
2022-12-16T22:07:24.717Z,101554.03
2022-12-16T22:10:30.551Z,101560.78
2022-12-16T22:13:36.261Z,101566.22
2022-12-16T22:16:42.868Z,101561.44
2022-12-16T22:19:48.463Z,101559.84
2022-12-16T22:23:32.225Z,101572.28
2022-12-16T22:26:37.616Z,101568.88
2022-12-16T22:29:43.144Z,101575.59
2022-12-16T22:32:48.935Z,101586.03
2022-12-16T22:35:55.472Z,101585.16
2022-12-16T22:39:00.551Z,101588.03
2022-12-16T22:42:05.902Z,101591.53
2022-12-16T22:45:11.096Z,101585.38
2022-12-16T22:48:16.563Z,101585.47
2022-12-16T22:51:22.076Z,101588.69
2022-12-16T22:54:27.605Z,101587.25
2022-12-16T22:57:32.973Z,101592.56
2022-12-16T23:00:38.007Z,101590.97
2022-12-16T23:03:44.230Z,101590.59
2022-12-16T23:06:49.937Z,101582.53
2022-12-16T23:09:55.421Z,101588.22
2022-12-16T23:13:01.784Z,101591.75
2022-12-16T23:16:07.127Z,101592.59
2022-12-16T23:19:12.599Z,101608.34
2022-12-16T23:22:17.962Z,101603.78
2022-12-16T23:25:23.198Z,101601.03
2022-12-16T23:28:28.785Z,101611.69
2022-12-16T23:31:34.033Z,101606.06
2022-12-16T23:34:43.872Z,101613.09
2022-12-16T23:37:50.974Z,101611.59
2022-12-16T23:40:57.098Z,101608.75
2022-12-16T23:44:02.939Z,101615.06
2022-12-16T23:47:08.354Z,101623.13
2022-12-16T23:50:15.684Z,101632.06
2022-12-16T23:53:30.373Z,101624.00
2022-12-16T23:56:35.798Z,101620.19
2022-12-16T23:59:41.146Z,101621.25
